sensor_id;sensor_type;location;lat;lon;timestamp;temperature;humidity
6291;DHT22;3178;48.730;8.990;2023-03-31T00:01:34;10.20;99.90
6291;DHT22;3178;48.730;8.990;2023-03-31T00:04:00;10.20;99.90
6291;DHT22;3178;48.730;8.990;2023-03-31T00:06:36;10.40;99.90
6291;DHT22;3178;48.730;8.990;2023-03-31T00:09:24;10.20;99.90
6291;DHT22;3178;48.730;8.990;2023-03-31T00:11:51;10.20;99.90
6291;DHT22;3178;48.730;8.990;2023-03-31T00:14:18;10.20;99.90
6291;DHT22;3178;48.730;8.990;2023-03-31T00:16:44;10.30;99.90
6291;DHT22;3178;48.730;8.990;2023-03-31T00:19:11;10.20;99.90
6291;DHT22;3178;48.730;8.990;2023-03-31T00:21:43;10.20;99.90
6291;DHT22;3178;48.730;8.990;2023-03-31T00:24:10;10.20;99.90
6291;DHT22;3178;48.730;8.990;2023-03-31T00:26:37;10.30;99.90
6291;DHT22;3178;48.730;8.990;2023-03-31T00:29:04;10.20;99.90
6291;DHT22;3178;48.730;8.990;2023-03-31T00:31:31;10.30;99.90
6291;DHT22;3178;48.730;8.990;2023-03-31T00:33:57;10.30;99.90
6291;DHT22;3178;48.730;8.990;2023-03-31T00:36:23;10.30;99.90
6291;DHT22;3178;48.730;8.990;2023-03-31T00:38:57;10.30;99.90
6291;DHT22;3178;48.730;8.990;2023-03-31T00:41:24;10.30;99.90
6291;DHT22;3178;48.730;8.990;2023-03-31T00:44:20;10.30;99.90
6291;DHT22;3178;48.730;8.990;2023-03-31T00:46:53;10.20;99.90
6291;DHT22;3178;48.730;8.990;2023-03-31T00:49:36;10.20;99.90
6291;DHT22;3178;48.730;8.990;2023-03-31T00:52:11;10.30;99.90
6291;DHT22;3178;48.730;8.990;2023-03-31T00:54:39;10.30;99.90
6291;DHT22;3178;48.730;8.990;2023-03-31T00:57:07;10.20;99.90
6291;DHT22;3178;48.730;8.990;2023-03-31T00:59:46;10.20;99.90
6291;DHT22;3178;48.730;8.990;2023-03-31T01:02:15;10.30;99.90
6291;DHT22;3178;48.730;8.990;2023-03-31T01:04:45;10.30;99.90
6291;DHT22;3178;48.730;8.990;2023-03-31T01:07:32;10.30;99.90
6291;DHT22;3178;48.730;8.990;2023-03-31T01:10:01;10.30;99.90
6291;DHT22;3178;48.730;8.990;2023-03-31T01:12:27;10.30;99.90
6291;DHT22;3178;48.730;8.990;2023-03-31T01:14:54;10.30;99.90
6291;DHT22;3178;48.730;8.990;2023-03-31T01:17:21;10.30;99.90
6291;DHT22;3178;48.730;8.990;2023-03-31T01:25:46;10.40;99.90
6291;DHT22;3178;48.730;8.990;2023-03-31T01:28:37;10.40;99.90
6291;DHT22;3178;48.730;8.990;2023-03-31T01:31:16;10.40;99.90
6291;DHT22;3178;48.730;8.990;2023-03-31T01:36:40;10.40;99.90
6291;DHT22;3178;48.730;8.990;2023-03-31T01:42:28;10.30;99.90
6291;DHT22;3178;48.730;8.990;2023-03-31T01:48:00;10.30;99.90
6291;DHT22;3178;48.730;8.990;2023-03-31T01:50:34;10.40;99.90
6291;DHT22;3178;48.730;8.990;2023-03-31T02:01:16;10.40;99.90
6291;DHT22;3178;48.730;8.990;2023-03-31T02:03:57;10.40;99.90
6291;DHT22;3178;48.730;8.990;2023-03-31T02:06:27;10.40;99.90
6291;DHT22;3178;48.730;8.990;2023-03-31T02:08:59;10.40;99.90
6291;DHT22;3178;48.730;8.990;2023-03-31T02:11:28;10.40;99.90
6291;DHT22;3178;48.730;8.990;2023-03-31T02:13:55;10.40;99.90
6291;DHT22;3178;48.730;8.990;2023-03-31T02:16:25;10.40;99.90
6291;DHT22;3178;48.730;8.990;2023-03-31T02:18:54;10.40;99.90
6291;DHT22;3178;48.730;8.990;2023-03-31T02:21:31;10.30;99.90
6291;DHT22;3178;48.730;8.990;2023-03-31T02:23:59;10.20;99.90
6291;DHT22;3178;48.730;8.990;2023-03-31T02:26:30;10.20;99.90
6291;DHT22;3178;48.730;8.990;2023-03-31T02:28:58;10.20;99.90
6291;DHT22;3178;48.730;8.990;2023-03-31T02:33:59;10.20;99.90
6291;DHT22;3178;48.730;8.990;2023-03-31T02:36:25;10.10;99.90
6291;DHT22;3178;48.730;8.990;2023-03-31T02:38:56;10.10;99.90
6291;DHT22;3178;48.730;8.990;2023-03-31T02:41:23;10.10;99.90
6291;DHT22;3178;48.730;8.990;2023-03-31T02:43:49;10.10;99.90
6291;DHT22;3178;48.730;8.990;2023-03-31T02:46:14;10.10;99.90
6291;DHT22;3178;48.730;8.990;2023-03-31T02:48:43;10.10;99.90
6291;DHT22;3178;48.730;8.990;2023-03-31T02:51:32;10.20;99.90
6291;DHT22;3178;48.730;8.990;2023-03-31T03:02:39;10.20;99.90
6291;DHT22;3178;48.730;8.990;2023-03-31T03:16:08;10.10;99.90
6291;DHT22;3178;48.730;8.990;2023-03-31T03:18:38;10.00;99.90
6291;DHT22;3178;48.730;8.990;2023-03-31T03:21:03;10.00;99.90
6291;DHT22;3178;48.730;8.990;2023-03-31T03:23:29;10.20;99.90
6291;DHT22;3178;48.730;8.990;2023-03-31T03:25:55;10.00;99.90
6291;DHT22;3178;48.730;8.990;2023-03-31T03:28:21;10.00;99.90
6291;DHT22;3178;48.730;8.990;2023-03-31T03:30:47;10.00;99.90
6291;DHT22;3178;48.730;8.990;2023-03-31T03:33:12;9.90;99.90
6291;DHT22;3178;48.730;8.990;2023-03-31T03:35:41;9.90;99.90
6291;DHT22;3178;48.730;8.990;2023-03-31T03:38:07;9.90;99.90
6291;DHT22;3178;48.730;8.990;2023-03-31T03:40:32;9.80;99.90
6291;DHT22;3178;48.730;8.990;2023-03-31T03:42:58;9.80;99.90
6291;DHT22;3178;48.730;8.990;2023-03-31T03:45:23;9.70;99.90
6291;DHT22;3178;48.730;8.990;2023-03-31T03:47:49;9.70;99.90
6291;DHT22;3178;48.730;8.990;2023-03-31T03:50:15;9.70;99.90
6291;DHT22;3178;48.730;8.990;2023-03-31T03:52:40;9.60;99.90
6291;DHT22;3178;48.730;8.990;2023-03-31T03:55:06;9.60;99.90
6291;DHT22;3178;48.730;8.990;2023-03-31T03:57:32;9.60;99.90
6291;DHT22;3178;48.730;8.990;2023-03-31T03:59:57;9.50;99.90
6291;DHT22;3178;48.730;8.990;2023-03-31T04:02:23;9.50;99.90
6291;DHT22;3178;48.730;8.990;2023-03-31T04:04:49;9.50;99.90
6291;DHT22;3178;48.730;8.990;2023-03-31T04:07:14;9.50;99.90
6291;DHT22;3178;48.730;8.990;2023-03-31T04:09:40;9.50;99.90
6291;DHT22;3178;48.730;8.990;2023-03-31T04:12:05;9.40;99.90
6291;DHT22;3178;48.730;8.990;2023-03-31T04:14:31;9.40;99.90
6291;DHT22;3178;48.730;8.990;2023-03-31T04:16:56;9.40;99.90
6291;DHT22;3178;48.730;8.990;2023-03-31T04:19:22;9.30;99.90
6291;DHT22;3178;48.730;8.990;2023-03-31T04:21:50;9.30;99.90
6291;DHT22;3178;48.730;8.990;2023-03-31T04:24:27;9.30;99.90
6291;DHT22;3178;48.730;8.990;2023-03-31T04:26:58;9.30;99.90
6291;DHT22;3178;48.730;8.990;2023-03-31T04:29:24;9.30;99.90
6291;DHT22;3178;48.730;8.990;2023-03-31T04:31:52;9.30;99.90
6291;DHT22;3178;48.730;8.990;2023-03-31T04:34:18;9.30;99.90
6291;DHT22;3178;48.730;8.990;2023-03-31T04:36:51;9.30;99.90
6291;DHT22;3178;48.730;8.990;2023-03-31T04:39:20;9.30;99.90
6291;DHT22;3178;48.730;8.990;2023-03-31T04:41:52;9.30;99.90
6291;DHT22;3178;48.730;8.990;2023-03-31T04:44:17;9.30;99.90
6291;DHT22;3178;48.730;8.990;2023-03-31T04:46:43;9.30;99.90
6291;DHT22;3178;48.730;8.990;2023-03-31T04:49:08;9.30;99.90
6291;DHT22;3178;48.730;8.990;2023-03-31T04:51:43;9.30;99.90
6291;DHT22;3178;48.730;8.990;2023-03-31T04:54:09;9.30;99.90
6291;DHT22;3178;48.730;8.990;2023-03-31T04:56:34;9.40;99.90
6291;DHT22;3178;48.730;8.990;2023-03-31T04:59:00;9.40;99.90
6291;DHT22;3178;48.730;8.990;2023-03-31T05:01:28;9.40;99.90
6291;DHT22;3178;48.730;8.990;2023-03-31T05:03:57;9.50;99.90
6291;DHT22;3178;48.730;8.990;2023-03-31T05:06:23;9.50;99.90
6291;DHT22;3178;48.730;8.990;2023-03-31T05:08:48;9.50;99.90
6291;DHT22;3178;48.730;8.990;2023-03-31T05:11:14;9.50;99.90
6291;DHT22;3178;48.730;8.990;2023-03-31T05:13:39;9.50;99.90
6291;DHT22;3178;48.730;8.990;2023-03-31T05:16:10;9.50;99.90
6291;DHT22;3178;48.730;8.990;2023-03-31T05:18:39;9.50;99.90
6291;DHT22;3178;48.730;8.990;2023-03-31T05:21:19;9.50;99.90
6291;DHT22;3178;48.730;8.990;2023-03-31T05:23:45;9.50;99.90
6291;DHT22;3178;48.730;8.990;2023-03-31T05:26:11;9.50;99.90
6291;DHT22;3178;48.730;8.990;2023-03-31T05:28:37;9.40;99.90
6291;DHT22;3178;48.730;8.990;2023-03-31T05:31:04;9.50;99.90
6291;DHT22;3178;48.730;8.990;2023-03-31T05:33:30;9.50;99.90
6291;DHT22;3178;48.730;8.990;2023-03-31T05:35:56;9.50;99.90
6291;DHT22;3178;48.730;8.990;2023-03-31T05:38:25;9.40;99.90
6291;DHT22;3178;48.730;8.990;2023-03-31T05:40:54;9.40;99.90
6291;DHT22;3178;48.730;8.990;2023-03-31T05:43:19;9.40;99.90
6291;DHT22;3178;48.730;8.990;2023-03-31T05:45:45;9.40;99.90
6291;DHT22;3178;48.730;8.990;2023-03-31T05:48:10;9.40;99.90
6291;DHT22;3178;48.730;8.990;2023-03-31T05:50:36;9.40;99.90
6291;DHT22;3178;48.730;8.990;2023-03-31T05:53:01;9.50;99.90
6291;DHT22;3178;48.730;8.990;2023-03-31T05:55:27;9.50;99.90
6291;DHT22;3178;48.730;8.990;2023-03-31T05:57:52;9.40;99.90
6291;DHT22;3178;48.730;8.990;2023-03-31T06:00:19;9.60;99.90
6291;DHT22;3178;48.730;8.990;2023-03-31T06:02:44;9.40;99.90
6291;DHT22;3178;48.730;8.990;2023-03-31T06:05:11;9.40;99.90
6291;DHT22;3178;48.730;8.990;2023-03-31T06:07:36;9.40;99.90
6291;DHT22;3178;48.730;8.990;2023-03-31T06:10:02;9.40;99.90
6291;DHT22;3178;48.730;8.990;2023-03-31T06:12:27;9.40;99.90
6291;DHT22;3178;48.730;8.990;2023-03-31T06:14:53;9.40;99.90
6291;DHT22;3178;48.730;8.990;2023-03-31T06:17:19;9.40;99.90
6291;DHT22;3178;48.730;8.990;2023-03-31T06:19:44;9.40;99.90
6291;DHT22;3178;48.730;8.990;2023-03-31T06:22:10;9.40;99.90
6291;DHT22;3178;48.730;8.990;2023-03-31T06:24:35;9.50;99.90
6291;DHT22;3178;48.730;8.990;2023-03-31T06:27:01;9.40;99.90
6291;DHT22;3178;48.730;8.990;2023-03-31T06:29:28;9.40;99.90
6291;DHT22;3178;48.730;8.990;2023-03-31T06:31:53;9.50;99.90
6291;DHT22;3178;48.730;8.990;2023-03-31T06:34:19;9.50;99.90
6291;DHT22;3178;48.730;8.990;2023-03-31T06:36:45;9.50;99.90
6291;DHT22;3178;48.730;8.990;2023-03-31T06:39:10;9.50;99.90
6291;DHT22;3178;48.730;8.990;2023-03-31T06:41:36;9.50;99.90
6291;DHT22;3178;48.730;8.990;2023-03-31T06:44:03;9.50;99.90
6291;DHT22;3178;48.730;8.990;2023-03-31T06:46:28;9.50;99.90
6291;DHT22;3178;48.730;8.990;2023-03-31T06:48:54;9.40;99.90
6291;DHT22;3178;48.730;8.990;2023-03-31T06:51:20;9.30;99.90
6291;DHT22;3178;48.730;8.990;2023-03-31T06:53:46;9.30;99.90
6291;DHT22;3178;48.730;8.990;2023-03-31T06:56:11;9.30;99.90
6291;DHT22;3178;48.730;8.990;2023-03-31T06:58:37;9.30;99.90
6291;DHT22;3178;48.730;8.990;2023-03-31T07:01:04;9.20;99.90
6291;DHT22;3178;48.730;8.990;2023-03-31T07:03:30;9.20;99.90
6291;DHT22;3178;48.730;8.990;2023-03-31T07:05:56;9.20;99.90
6291;DHT22;3178;48.730;8.990;2023-03-31T07:08:22;9.20;99.90
6291;DHT22;3178;48.730;8.990;2023-03-31T07:10:51;9.20;99.90
6291;DHT22;3178;48.730;8.990;2023-03-31T07:13:17;9.20;99.90
6291;DHT22;3178;48.730;8.990;2023-03-31T07:15:46;9.20;99.90
6291;DHT22;3178;48.730;8.990;2023-03-31T07:18:12;9.20;99.90
6291;DHT22;3178;48.730;8.990;2023-03-31T07:20:40;9.20;99.90
6291;DHT22;3178;48.730;8.990;2023-03-31T07:23:06;9.20;99.90
6291;DHT22;3178;48.730;8.990;2023-03-31T07:25:33;9.30;99.90
6291;DHT22;3178;48.730;8.990;2023-03-31T07:27:59;9.30;99.90
6291;DHT22;3178;48.730;8.990;2023-03-31T07:30:24;9.30;99.90
6291;DHT22;3178;48.730;8.990;2023-03-31T07:32:51;9.50;99.90
6291;DHT22;3178;48.730;8.990;2023-03-31T07:35:18;9.60;99.90
6291;DHT22;3178;48.730;8.990;2023-03-31T07:37:45;10.00;99.90
6291;DHT22;3178;48.730;8.990;2023-03-31T07:40:18;10.10;99.90
6291;DHT22;3178;48.730;8.990;2023-03-31T07:42:45;10.30;99.90
6291;DHT22;3178;48.730;8.990;2023-03-31T07:45:13;10.50;99.90
6291;DHT22;3178;48.730;8.990;2023-03-31T07:47:38;10.60;99.90
6291;DHT22;3178;48.730;8.990;2023-03-31T07:50:06;10.90;99.90
6291;DHT22;3178;48.730;8.990;2023-03-31T07:52:31;11.10;99.90
6291;DHT22;3178;48.730;8.990;2023-03-31T07:54:57;11.50;99.90
6291;DHT22;3178;48.730;8.990;2023-03-31T07:57:22;11.70;99.90
6291;DHT22;3178;48.730;8.990;2023-03-31T07:59:48;12.10;99.90
6291;DHT22;3178;48.730;8.990;2023-03-31T08:02:15;12.40;99.90
6291;DHT22;3178;48.730;8.990;2023-03-31T08:04:42;12.70;99.90
6291;DHT22;3178;48.730;8.990;2023-03-31T08:07:09;13.10;99.90
6291;DHT22;3178;48.730;8.990;2023-03-31T08:09:36;13.40;99.90
6291;DHT22;3178;48.730;8.990;2023-03-31T08:12:03;13.60;99.90
6291;DHT22;3178;48.730;8.990;2023-03-31T08:14:28;13.50;99.90
6291;DHT22;3178;48.730;8.990;2023-03-31T08:16:54;13.50;99.90
6291;DHT22;3178;48.730;8.990;2023-03-31T08:19:20;13.70;99.90
6291;DHT22;3178;48.730;8.990;2023-03-31T08:21:46;13.60;99.90
6291;DHT22;3178;48.730;8.990;2023-03-31T08:24:12;13.70;99.90
6291;DHT22;3178;48.730;8.990;2023-03-31T08:26:37;13.90;99.90
6291;DHT22;3178;48.730;8.990;2023-03-31T08:29:05;14.20;99.90
6291;DHT22;3178;48.730;8.990;2023-03-31T08:31:31;14.50;99.90
6291;DHT22;3178;48.730;8.990;2023-03-31T08:33:56;14.60;99.90
6291;DHT22;3178;48.730;8.990;2023-03-31T08:36:22;14.90;99.90
6291;DHT22;3178;48.730;8.990;2023-03-31T08:38:47;14.90;99.90
6291;DHT22;3178;48.730;8.990;2023-03-31T08:41:42;15.20;99.90
6291;DHT22;3178;48.730;8.990;2023-03-31T08:44:14;15.50;99.90
6291;DHT22;3178;48.730;8.990;2023-03-31T08:46:41;15.90;99.90
6291;DHT22;3178;48.730;8.990;2023-03-31T08:49:13;16.20;99.90
6291;DHT22;3178;48.730;8.990;2023-03-31T08:52:16;16.20;99.90
6291;DHT22;3178;48.730;8.990;2023-03-31T08:54:48;16.30;99.90
6291;DHT22;3178;48.730;8.990;2023-03-31T08:57:22;16.60;99.90
6291;DHT22;3178;48.730;8.990;2023-03-31T08:59:49;16.50;99.90
6291;DHT22;3178;48.730;8.990;2023-03-31T09:04:53;15.90;99.90
6291;DHT22;3178;48.730;8.990;2023-03-31T09:10:22;15.60;99.90
6291;DHT22;3178;48.730;8.990;2023-03-31T09:16:03;16.10;99.90
6291;DHT22;3178;48.730;8.990;2023-03-31T09:18:32;16.40;99.90
6291;DHT22;3178;48.730;8.990;2023-03-31T09:21:16;16.10;99.90
6291;DHT22;3178;48.730;8.990;2023-03-31T09:23:55;16.00;99.90
6291;DHT22;3178;48.730;8.990;2023-03-31T09:26:40;15.80;99.90
6291;DHT22;3178;48.730;8.990;2023-03-31T09:29:16;15.60;99.90
6291;DHT22;3178;48.730;8.990;2023-03-31T09:31:44;15.30;99.90
6291;DHT22;3178;48.730;8.990;2023-03-31T09:34:26;15.10;99.90
6291;DHT22;3178;48.730;8.990;2023-03-31T09:36:53;14.70;99.90
6291;DHT22;3178;48.730;8.990;2023-03-31T09:39:18;14.40;99.90
6291;DHT22;3178;48.730;8.990;2023-03-31T09:41:46;14.30;99.90
6291;DHT22;3178;48.730;8.990;2023-03-31T09:44:30;14.30;99.90
6291;DHT22;3178;48.730;8.990;2023-03-31T09:46:59;14.30;99.90
6291;DHT22;3178;48.730;8.990;2023-03-31T09:49:27;14.50;99.90
6291;DHT22;3178;48.730;8.990;2023-03-31T09:52:24;14.40;99.90
6291;DHT22;3178;48.730;8.990;2023-03-31T09:54:52;14.30;99.90
6291;DHT22;3178;48.730;8.990;2023-03-31T09:57:29;14.60;99.90
6291;DHT22;3178;48.730;8.990;2023-03-31T10:00:20;14.90;99.90
6291;DHT22;3178;48.730;8.990;2023-03-31T10:02:56;15.10;99.90
6291;DHT22;3178;48.730;8.990;2023-03-31T10:05:31;15.20;99.90
6291;DHT22;3178;48.730;8.990;2023-03-31T10:10:47;15.60;99.90
6291;DHT22;3178;48.730;8.990;2023-03-31T10:13:16;15.90;99.90
6291;DHT22;3178;48.730;8.990;2023-03-31T10:15:43;16.20;99.90
6291;DHT22;3178;48.730;8.990;2023-03-31T10:18:14;16.20;99.90
6291;DHT22;3178;48.730;8.990;2023-03-31T10:20:49;16.50;99.90
6291;DHT22;3178;48.730;8.990;2023-03-31T10:23:15;16.80;99.90
6291;DHT22;3178;48.730;8.990;2023-03-31T10:25:42;16.90;99.90
6291;DHT22;3178;48.730;8.990;2023-03-31T10:28:15;17.20;99.90
6291;DHT22;3178;48.730;8.990;2023-03-31T10:30:47;17.20;99.90
6291;DHT22;3178;48.730;8.990;2023-03-31T10:33:16;17.20;99.90
6291;DHT22;3178;48.730;8.990;2023-03-31T10:35:43;17.30;99.90
6291;DHT22;3178;48.730;8.990;2023-03-31T10:38:18;17.60;99.90
6291;DHT22;3178;48.730;8.990;2023-03-31T10:40:55;17.90;99.90
6291;DHT22;3178;48.730;8.990;2023-03-31T10:46:00;17.70;99.90
6291;DHT22;3178;48.730;8.990;2023-03-31T10:48:31;17.40;99.90
6291;DHT22;3178;48.730;8.990;2023-03-31T10:53:42;17.60;99.90
6291;DHT22;3178;48.730;8.990;2023-03-31T10:56:29;17.40;99.90
6291;DHT22;3178;48.730;8.990;2023-03-31T10:59:18;17.00;99.90
6291;DHT22;3178;48.730;8.990;2023-03-31T11:08:24;16.20;99.90
6291;DHT22;3178;48.730;8.990;2023-03-31T11:10:33;16.00;99.90
6291;DHT22;3178;48.730;8.990;2023-03-31T11:15:59;15.00;99.90
6291;DHT22;3178;48.730;8.990;2023-03-31T11:18:42;14.10;99.90
6291;DHT22;3178;48.730;8.990;2023-03-31T11:46:04;10.50;99.90
6291;DHT22;3178;48.730;8.990;2023-03-31T11:48:46;10.40;99.90
6291;DHT22;3178;48.730;8.990;2023-03-31T11:51:25;10.40;99.90
6291;DHT22;3178;48.730;8.990;2023-03-31T11:53:53;10.50;99.90
6291;DHT22;3178;48.730;8.990;2023-03-31T11:56:22;10.80;99.90
6291;DHT22;3178;48.730;8.990;2023-03-31T11:58:52;11.10;99.90
6291;DHT22;3178;48.730;8.990;2023-03-31T12:01:46;11.60;99.90
6291;DHT22;3178;48.730;8.990;2023-03-31T12:04:35;12.00;99.90
6291;DHT22;3178;48.730;8.990;2023-03-31T12:07:53;12.40;99.90
6291;DHT22;3178;48.730;8.990;2023-03-31T12:10:37;12.70;99.90
6291;DHT22;3178;48.730;8.990;2023-03-31T12:16:14;13.00;99.90
6291;DHT22;3178;48.730;8.990;2023-03-31T12:18:48;12.90;99.90
6291;DHT22;3178;48.730;8.990;2023-03-31T12:21:21;12.90;99.90
6291;DHT22;3178;48.730;8.990;2023-03-31T12:23:48;13.00;99.90
6291;DHT22;3178;48.730;8.990;2023-03-31T12:29:05;13.70;99.90
6291;DHT22;3178;48.730;8.990;2023-03-31T12:31:32;13.60;99.90
6291;DHT22;3178;48.730;8.990;2023-03-31T12:34:10;13.60;99.90
6291;DHT22;3178;48.730;8.990;2023-03-31T12:41:57;13.70;99.90
6291;DHT22;3178;48.730;8.990;2023-03-31T12:47:15;14.10;99.90
6291;DHT22;3178;48.730;8.990;2023-03-31T12:52:47;14.60;99.90
6291;DHT22;3178;48.730;8.990;2023-03-31T12:55:38;14.80;99.90
6291;DHT22;3178;48.730;8.990;2023-03-31T13:03:41;14.90;99.90
6291;DHT22;3178;48.730;8.990;2023-03-31T13:08:52;14.60;99.90
6291;DHT22;3178;48.730;8.990;2023-03-31T13:11:21;14.30;99.90
6291;DHT22;3178;48.730;8.990;2023-03-31T13:14:18;14.10;99.90
6291;DHT22;3178;48.730;8.990;2023-03-31T13:16:45;13.80;99.90
6291;DHT22;3178;48.730;8.990;2023-03-31T13:19:34;13.50;99.90
6291;DHT22;3178;48.730;8.990;2023-03-31T13:22:00;13.20;99.90
6291;DHT22;3178;48.730;8.990;2023-03-31T13:24:27;12.80;99.90
6291;DHT22;3178;48.730;8.990;2023-03-31T13:26:54;12.40;99.90
6291;DHT22;3178;48.730;8.990;2023-03-31T13:29:37;12.00;99.90
6291;DHT22;3178;48.730;8.990;2023-03-31T13:32:14;11.70;99.90
6291;DHT22;3178;48.730;8.990;2023-03-31T13:34:55;11.60;99.90
6291;DHT22;3178;48.730;8.990;2023-03-31T13:40:24;11.00;99.90
6291;DHT22;3178;48.730;8.990;2023-03-31T13:49:16;10.30;99.90
6291;DHT22;3178;48.730;8.990;2023-03-31T13:51:58;10.20;99.90
6291;DHT22;3178;48.730;8.990;2023-03-31T13:54:44;10.10;99.90
6291;DHT22;3178;48.730;8.990;2023-03-31T14:06:13;9.90;99.90
6291;DHT22;3178;48.730;8.990;2023-03-31T14:08:54;10.10;99.90
6291;DHT22;3178;48.730;8.990;2023-03-31T14:11:29;10.40;99.90
6291;DHT22;3178;48.730;8.990;2023-03-31T14:14:00;10.50;99.90
6291;DHT22;3178;48.730;8.990;2023-03-31T14:16:27;10.70;99.90
6291;DHT22;3178;48.730;8.990;2023-03-31T14:22:07;10.90;99.90
6291;DHT22;3178;48.730;8.990;2023-03-31T14:24:36;11.00;99.90
6291;DHT22;3178;48.730;8.990;2023-03-31T14:27:28;11.10;99.90
6291;DHT22;3178;48.730;8.990;2023-03-31T14:38:45;11.40;99.90
6291;DHT22;3178;48.730;8.990;2023-03-31T14:41:19;11.50;99.90
6291;DHT22;3178;48.730;8.990;2023-03-31T14:43:49;11.50;99.90
6291;DHT22;3178;48.730;8.990;2023-03-31T14:46:20;11.50;99.90
6291;DHT22;3178;48.730;8.990;2023-03-31T14:48:47;11.60;99.90
6291;DHT22;3178;48.730;8.990;2023-03-31T14:51:16;11.60;99.90
6291;DHT22;3178;48.730;8.990;2023-03-31T14:53:42;11.60;99.90
6291;DHT22;3178;48.730;8.990;2023-03-31T14:56:14;11.50;99.90
6291;DHT22;3178;48.730;8.990;2023-03-31T14:58:47;11.50;99.90
6291;DHT22;3178;48.730;8.990;2023-03-31T15:01:17;11.50;99.90
6291;DHT22;3178;48.730;8.990;2023-03-31T15:03:44;11.70;99.90
6291;DHT22;3178;48.730;8.990;2023-03-31T15:06:11;11.70;99.90
6291;DHT22;3178;48.730;8.990;2023-03-31T15:08:37;11.80;99.90
6291;DHT22;3178;48.730;8.990;2023-03-31T15:11:07;11.80;99.90
6291;DHT22;3178;48.730;8.990;2023-03-31T15:13:42;11.80;99.90
6291;DHT22;3178;48.730;8.990;2023-03-31T15:18:58;11.80;99.90
6291;DHT22;3178;48.730;8.990;2023-03-31T15:21:27;11.80;99.90
6291;DHT22;3178;48.730;8.990;2023-03-31T15:23:57;11.70;99.90
6291;DHT22;3178;48.730;8.990;2023-03-31T15:26:33;11.70;99.90
6291;DHT22;3178;48.730;8.990;2023-03-31T15:29:11;11.70;99.90
6291;DHT22;3178;48.730;8.990;2023-03-31T15:31:39;11.60;99.90
6291;DHT22;3178;48.730;8.990;2023-03-31T15:34:34;11.60;99.90
6291;DHT22;3178;48.730;8.990;2023-03-31T15:37:00;11.60;99.90
6291;DHT22;3178;48.730;8.990;2023-03-31T15:39:29;11.60;99.90
6291;DHT22;3178;48.730;8.990;2023-03-31T15:41:56;11.50;99.90
6291;DHT22;3178;48.730;8.990;2023-03-31T15:47:12;11.60;99.90
6291;DHT22;3178;48.730;8.990;2023-03-31T15:52:36;11.60;99.90
6291;DHT22;3178;48.730;8.990;2023-03-31T15:57:48;11.60;99.90
6291;DHT22;3178;48.730;8.990;2023-03-31T16:00:41;11.50;99.90
6291;DHT22;3178;48.730;8.990;2023-03-31T16:03:35;11.40;99.90
6291;DHT22;3178;48.730;8.990;2023-03-31T16:06:18;11.40;99.90
6291;DHT22;3178;48.730;8.990;2023-03-31T16:08:50;11.40;99.90
6291;DHT22;3178;48.730;8.990;2023-03-31T16:11:37;11.30;99.90
6291;DHT22;3178;48.730;8.990;2023-03-31T16:16:39;11.20;99.90
6291;DHT22;3178;48.730;8.990;2023-03-31T16:19:09;11.10;99.90
6291;DHT22;3178;48.730;8.990;2023-03-31T16:21:40;11.10;99.90
6291;DHT22;3178;48.730;8.990;2023-03-31T16:24:08;11.00;99.90
6291;DHT22;3178;48.730;8.990;2023-03-31T16:26:35;10.80;99.90
6291;DHT22;3178;48.730;8.990;2023-03-31T16:29:02;10.80;99.90
6291;DHT22;3178;48.730;8.990;2023-03-31T16:34:01;10.60;99.90
6291;DHT22;3178;48.730;8.990;2023-03-31T16:36:27;10.30;99.90
6291;DHT22;3178;48.730;8.990;2023-03-31T16:38:52;10.10;99.90
6291;DHT22;3178;48.730;8.990;2023-03-31T16:41:19;10.00;99.90
6291;DHT22;3178;48.730;8.990;2023-03-31T16:43:47;9.90;99.90
6291;DHT22;3178;48.730;8.990;2023-03-31T16:46:16;9.80;99.90
6291;DHT22;3178;48.730;8.990;2023-03-31T16:48:42;9.70;99.90
6291;DHT22;3178;48.730;8.990;2023-03-31T16:51:08;9.70;99.90
6291;DHT22;3178;48.730;8.990;2023-03-31T16:53:34;9.70;99.90
6291;DHT22;3178;48.730;8.990;2023-03-31T16:56:00;9.70;99.90
6291;DHT22;3178;48.730;8.990;2023-03-31T16:58:27;9.70;99.90
6291;DHT22;3178;48.730;8.990;2023-03-31T17:00:53;9.70;99.90
6291;DHT22;3178;48.730;8.990;2023-03-31T17:03:19;9.70;99.90
6291;DHT22;3178;48.730;8.990;2023-03-31T17:05:47;9.70;99.90
6291;DHT22;3178;48.730;8.990;2023-03-31T17:08:15;9.70;99.90
6291;DHT22;3178;48.730;8.990;2023-03-31T17:10:48;9.60;99.90
6291;DHT22;3178;48.730;8.990;2023-03-31T17:13:14;9.50;99.90
6291;DHT22;3178;48.730;8.990;2023-03-31T17:15:40;9.50;99.90
6291;DHT22;3178;48.730;8.990;2023-03-31T17:18:06;9.40;99.90
6291;DHT22;3178;48.730;8.990;2023-03-31T17:20:31;9.40;99.90
6291;DHT22;3178;48.730;8.990;2023-03-31T17:22:58;9.30;99.90
6291;DHT22;3178;48.730;8.990;2023-03-31T17:25:24;9.30;99.90
6291;DHT22;3178;48.730;8.990;2023-03-31T17:27:50;9.30;99.90
6291;DHT22;3178;48.730;8.990;2023-03-31T17:30:15;9.30;99.90
6291;DHT22;3178;48.730;8.990;2023-03-31T17:32:41;9.30;99.90
6291;DHT22;3178;48.730;8.990;2023-03-31T17:35:07;9.30;99.90
6291;DHT22;3178;48.730;8.990;2023-03-31T17:37:34;9.20;99.90
6291;DHT22;3178;48.730;8.990;2023-03-31T17:40:00;9.20;99.90
6291;DHT22;3178;48.730;8.990;2023-03-31T17:42:25;9.20;99.90
6291;DHT22;3178;48.730;8.990;2023-03-31T17:44:51;9.20;99.90
6291;DHT22;3178;48.730;8.990;2023-03-31T17:47:18;9.20;99.90
6291;DHT22;3178;48.730;8.990;2023-03-31T17:49:45;9.20;99.90
6291;DHT22;3178;48.730;8.990;2023-03-31T17:52:11;9.20;99.90
6291;DHT22;3178;48.730;8.990;2023-03-31T17:54:38;9.20;99.90
6291;DHT22;3178;48.730;8.990;2023-03-31T17:57:04;9.20;99.90
6291;DHT22;3178;48.730;8.990;2023-03-31T17:59:30;9.20;99.90
6291;DHT22;3178;48.730;8.990;2023-03-31T18:01:56;9.20;99.90
6291;DHT22;3178;48.730;8.990;2023-03-31T18:04:21;9.20;99.90
6291;DHT22;3178;48.730;8.990;2023-03-31T18:06:47;9.10;99.90
6291;DHT22;3178;48.730;8.990;2023-03-31T18:09:13;9.10;99.90
6291;DHT22;3178;48.730;8.990;2023-03-31T18:11:39;9.20;99.90
6291;DHT22;3178;48.730;8.990;2023-03-31T18:14:05;9.20;99.90
6291;DHT22;3178;48.730;8.990;2023-03-31T18:16:31;9.20;99.90
6291;DHT22;3178;48.730;8.990;2023-03-31T18:18:57;9.20;99.90
6291;DHT22;3178;48.730;8.990;2023-03-31T18:21:23;9.20;99.90
6291;DHT22;3178;48.730;8.990;2023-03-31T18:23:49;9.10;99.90
6291;DHT22;3178;48.730;8.990;2023-03-31T18:26:21;9.10;99.90
6291;DHT22;3178;48.730;8.990;2023-03-31T18:28:47;9.10;99.90
6291;DHT22;3178;48.730;8.990;2023-03-31T18:31:13;9.10;99.90
6291;DHT22;3178;48.730;8.990;2023-03-31T18:33:39;9.10;99.90
6291;DHT22;3178;48.730;8.990;2023-03-31T18:36:05;9.10;99.90
6291;DHT22;3178;48.730;8.990;2023-03-31T18:38:32;9.10;99.90
6291;DHT22;3178;48.730;8.990;2023-03-31T18:40:58;9.10;99.90
6291;DHT22;3178;48.730;8.990;2023-03-31T18:43:24;9.00;99.90
6291;DHT22;3178;48.730;8.990;2023-03-31T18:45:51;9.00;99.90
6291;DHT22;3178;48.730;8.990;2023-03-31T18:48:18;9.00;99.90
6291;DHT22;3178;48.730;8.990;2023-03-31T18:50:47;9.00;99.90
6291;DHT22;3178;48.730;8.990;2023-03-31T18:53:13;9.00;99.90
6291;DHT22;3178;48.730;8.990;2023-03-31T18:55:40;9.00;99.90
6291;DHT22;3178;48.730;8.990;2023-03-31T18:58:06;8.90;99.90
6291;DHT22;3178;48.730;8.990;2023-03-31T19:00:32;8.90;99.90
6291;DHT22;3178;48.730;8.990;2023-03-31T19:02:58;8.90;99.90
6291;DHT22;3178;48.730;8.990;2023-03-31T19:05:23;8.90;99.90
6291;DHT22;3178;48.730;8.990;2023-03-31T19:07:49;8.80;99.90
6291;DHT22;3178;48.730;8.990;2023-03-31T19:10:15;8.80;99.90
6291;DHT22;3178;48.730;8.990;2023-03-31T19:12:45;8.70;99.90